LDLO/LSZ METAR and TAF weather

Enter ICAO airport designator
Station Type Date Time Source
LDLO METAR 2019/02/17 12:00 UTC NOAA

LDLO 171200Z 29008KT CAVOK 13/07 Q1026


Station Type Date Time Source
LDLO Decoded METAR 2019/02/17 12:00 UTC NOAA

Losinj Island, Croatia (LDLO) 44-33-57N 014-23-35E
Feb 17, 2019 - 07:00 AM EST / 2019.02.17 1200 UTC
Wind: from the WNW (290 degrees) at 9 MPH (8 KT):0
Visibility: greater than 7 mile(s):0
Temperature: 55 F (13 C)
Dew Point: 44 F (7 C)
Relative Humidity: 66%
Pressure (altimeter): 30.30 in. Hg (1026 hPa)
ob: LDLO 171200Z 29008KT CAVOK 13/07 Q1026
cycle: 12

Station Type Date Time Source
LDLO TAF 2019/02/17 13:15 UTC NOAA

TAF
AMD LDLO 171310Z 1713/1806 CNL


Example: see airport list